sensor_id;sensor_type;location;lat;lon;timestamp;P1;P2;P0
69222;PMS7003;56514;51.816;-0.026;2022-10-16T00:02:42;1.00;1.00;0.00
69222;PMS7003;56514;51.816;-0.026;2022-10-16T00:05:27;1.00;1.00;0.00
69222;PMS7003;56514;51.816;-0.026;2022-10-16T00:08:12;0.00;0.00;0.00
69222;PMS7003;56514;51.816;-0.026;2022-10-16T00:10:58;0.00;0.00;0.00
69222;PMS7003;56514;51.816;-0.026;2022-10-16T00:13:50;0.00;0.00;0.00
69222;PMS7003;56514;51.816;-0.026;2022-10-16T00:16:36;0.00;0.00;0.00
69222;PMS7003;56514;51.816;-0.026;2022-10-16T00:19:22;0.25;0.25;0.00
69222;PMS7003;56514;51.816;-0.026;2022-10-16T00:22:07;0.00;0.00;0.00
69222;PMS7003;56514;51.816;-0.026;2022-10-16T00:24:52;0.00;0.00;0.00
69222;PMS7003;56514;51.816;-0.026;2022-10-16T00:27:37;0.00;0.00;0.00
69222;PMS7003;56514;51.816;-0.026;2022-10-16T00:30:21;0.00;0.00;0.00
69222;PMS7003;56514;51.816;-0.026;2022-10-16T00:33:07;0.00;0.00;0.00
69222;PMS7003;56514;51.816;-0.026;2022-10-16T00:35:52;0.00;0.00;0.00
69222;PMS7003;56514;51.816;-0.026;2022-10-16T00:38:37;0.00;0.00;0.00
69222;PMS7003;56514;51.816;-0.026;2022-10-16T00:41:23;0.00;0.00;0.00
69222;PMS7003;56514;51.816;-0.026;2022-10-16T00:53:05;0.00;0.00;0.00
69222;PMS7003;56514;51.816;-0.026;2022-10-16T00:55:50;0.25;0.00;0.00
69222;PMS7003;56514;51.816;-0.026;2022-10-16T00:58:35;0.00;0.00;0.00
69222;PMS7003;56514;51.816;-0.026;2022-10-16T01:01:20;0.00;0.00;0.00
69222;PMS7003;56514;51.816;-0.026;2022-10-16T01:04:05;0.00;0.00;0.00
69222;PMS7003;56514;51.816;-0.026;2022-10-16T01:10:07;0.00;0.00;0.00
69222;PMS7003;56514;51.816;-0.026;2022-10-16T01:13:10;0.25;0.25;0.00
69222;PMS7003;56514;51.816;-0.026;2022-10-16T01:16:06;0.00;0.00;0.00
69222;PMS7003;56514;51.816;-0.026;2022-10-16T01:19:01;0.00;0.00;0.00
69222;PMS7003;56514;51.816;-0.026;2022-10-16T01:21:53;0.00;0.00;0.00
69222;PMS7003;56514;51.816;-0.026;2022-10-16T01:24:43;0.00;0.00;0.00
69222;PMS7003;56514;51.816;-0.026;2022-10-16T01:27:33;0.00;0.00;0.00
69222;PMS7003;56514;51.816;-0.026;2022-10-16T01:30:26;0.00;0.00;0.00
69222;PMS7003;56514;51.816;-0.026;2022-10-16T01:33:16;0.00;0.00;0.00
69222;PMS7003;56514;51.816;-0.026;2022-10-16T01:36:12;0.00;0.00;0.00
69222;PMS7003;56514;51.816;-0.026;2022-10-16T01:39:01;0.00;0.00;0.00
69222;PMS7003;56514;51.816;-0.026;2022-10-16T01:41:52;0.00;0.00;0.00
69222;PMS7003;56514;51.816;-0.026;2022-10-16T01:44:44;0.25;0.25;0.00
69222;PMS7003;56514;51.816;-0.026;2022-10-16T01:47:32;1.25;0.00;0.00
69222;PMS7003;56514;51.816;-0.026;2022-10-16T01:50:20;0.00;0.00;0.00
69222;PMS7003;56514;51.816;-0.026;2022-10-16T01:53:06;0.00;0.00;0.00
69222;PMS7003;56514;51.816;-0.026;2022-10-16T01:55:55;0.00;0.00;0.00
69222;PMS7003;56514;51.816;-0.026;2022-10-16T01:58:47;0.00;0.00;0.00
69222;PMS7003;56514;51.816;-0.026;2022-10-16T02:01:36;0.00;0.00;0.00
69222;PMS7003;56514;51.816;-0.026;2022-10-16T02:04:29;0.00;0.00;0.00
69222;PMS7003;56514;51.816;-0.026;2022-10-16T02:07:20;0.00;0.00;0.00
69222;PMS7003;56514;51.816;-0.026;2022-10-16T02:10:06;0.00;0.00;0.00
69222;PMS7003;56514;51.816;-0.026;2022-10-16T02:12:56;0.00;0.00;0.00
69222;PMS7003;56514;51.816;-0.026;2022-10-16T02:15:47;0.00;0.00;0.00
69222;PMS7003;56514;51.816;-0.026;2022-10-16T02:18:32;0.00;0.00;0.00
69222;PMS7003;56514;51.816;-0.026;2022-10-16T02:30:36;0.00;0.00;0.00
69222;PMS7003;56514;51.816;-0.026;2022-10-16T02:33:25;0.00;0.00;0.00
69222;PMS7003;56514;51.816;-0.026;2022-10-16T02:36:12;0.00;0.00;0.00
69222;PMS7003;56514;51.816;-0.026;2022-10-16T02:38:58;0.00;0.00;0.00
69222;PMS7003;56514;51.816;-0.026;2022-10-16T02:41:45;0.00;0.00;0.00
69222;PMS7003;56514;51.816;-0.026;2022-10-16T02:44:30;0.00;0.00;0.00
69222;PMS7003;56514;51.816;-0.026;2022-10-16T02:47:15;0.00;0.00;0.00
69222;PMS7003;56514;51.816;-0.026;2022-10-16T02:50:00;0.00;0.00;0.00
69222;PMS7003;56514;51.816;-0.026;2022-10-16T02:52:46;0.00;0.00;0.00
69222;PMS7003;56514;51.816;-0.026;2022-10-16T02:55:30;0.00;0.00;0.00
69222;PMS7003;56514;51.816;-0.026;2022-10-16T02:58:16;0.00;0.00;0.00
69222;PMS7003;56514;51.816;-0.026;2022-10-16T03:01:00;0.00;0.00;0.00
69222;PMS7003;56514;51.816;-0.026;2022-10-16T03:03:46;0.00;0.00;0.00
69222;PMS7003;56514;51.816;-0.026;2022-10-16T03:06:30;0.00;0.00;0.00
69222;PMS7003;56514;51.816;-0.026;2022-10-16T03:09:15;0.00;0.00;0.00
69222;PMS7003;56514;51.816;-0.026;2022-10-16T03:12:00;0.00;0.00;0.00
69222;PMS7003;56514;51.816;-0.026;2022-10-16T03:14:45;0.00;0.00;0.00
69222;PMS7003;56514;51.816;-0.026;2022-10-16T03:17:31;0.00;0.00;0.00
69222;PMS7003;56514;51.816;-0.026;2022-10-16T03:20:16;0.00;0.00;0.00
69222;PMS7003;56514;51.816;-0.026;2022-10-16T03:23:01;0.00;0.00;0.00
69222;PMS7003;56514;51.816;-0.026;2022-10-16T03:25:47;0.00;0.00;0.00
69222;PMS7003;56514;51.816;-0.026;2022-10-16T03:28:32;0.00;0.00;0.00
69222;PMS7003;56514;51.816;-0.026;2022-10-16T03:31:18;0.00;0.00;0.00
69222;PMS7003;56514;51.816;-0.026;2022-10-16T03:34:03;0.00;0.00;0.00
69222;PMS7003;56514;51.816;-0.026;2022-10-16T03:36:48;0.00;0.00;0.00
69222;PMS7003;56514;51.816;-0.026;2022-10-16T03:39:32;0.00;0.00;0.00
69222;PMS7003;56514;51.816;-0.026;2022-10-16T03:42:24;0.00;0.00;0.00
69222;PMS7003;56514;51.816;-0.026;2022-10-16T03:45:09;0.00;0.00;0.00
69222;PMS7003;56514;51.816;-0.026;2022-10-16T03:47:54;0.00;0.00;0.00
69222;PMS7003;56514;51.816;-0.026;2022-10-16T03:50:39;0.00;0.00;0.00
69222;PMS7003;56514;51.816;-0.026;2022-10-16T03:53:24;1.00;0.00;0.00
69222;PMS7003;56514;51.816;-0.026;2022-10-16T03:56:09;0.00;0.00;0.00
69222;PMS7003;56514;51.816;-0.026;2022-10-16T03:58:54;0.00;0.00;0.00
69222;PMS7003;56514;51.816;-0.026;2022-10-16T04:01:39;0.00;0.00;0.00
69222;PMS7003;56514;51.816;-0.026;2022-10-16T04:04:24;1.00;0.00;0.00
69222;PMS7003;56514;51.816;-0.026;2022-10-16T04:07:09;0.00;0.00;0.00
69222;PMS7003;56514;51.816;-0.026;2022-10-16T04:09:54;0.00;0.00;0.00
69222;PMS7003;56514;51.816;-0.026;2022-10-16T04:12:39;0.00;0.00;0.00
69222;PMS7003;56514;51.816;-0.026;2022-10-16T04:15:23;0.00;0.00;0.00
69222;PMS7003;56514;51.816;-0.026;2022-10-16T04:18:09;0.00;0.00;0.00
69222;PMS7003;56514;51.816;-0.026;2022-10-16T04:20:54;0.00;0.00;0.00
69222;PMS7003;56514;51.816;-0.026;2022-10-16T04:23:39;0.00;0.00;0.00
69222;PMS7003;56514;51.816;-0.026;2022-10-16T04:26:24;0.00;0.00;0.00
69222;PMS7003;56514;51.816;-0.026;2022-10-16T04:29:09;0.00;0.00;0.00
69222;PMS7003;56514;51.816;-0.026;2022-10-16T04:31:53;0.00;0.00;0.00
69222;PMS7003;56514;51.816;-0.026;2022-10-16T04:34:41;0.00;0.00;0.00
69222;PMS7003;56514;51.816;-0.026;2022-10-16T04:37:26;0.00;0.00;0.00
69222;PMS7003;56514;51.816;-0.026;2022-10-16T04:40:11;0.00;0.00;0.00
69222;PMS7003;56514;51.816;-0.026;2022-10-16T04:42:57;0.00;0.00;0.00
69222;PMS7003;56514;51.816;-0.026;2022-10-16T04:45:42;0.00;0.00;0.00
69222;PMS7003;56514;51.816;-0.026;2022-10-16T04:48:27;0.00;0.00;0.00
69222;PMS7003;56514;51.816;-0.026;2022-10-16T04:51:12;0.00;0.00;0.00
69222;PMS7003;56514;51.816;-0.026;2022-10-16T04:53:57;0.00;0.00;0.00
69222;PMS7003;56514;51.816;-0.026;2022-10-16T04:56:42;0.00;0.00;0.00
69222;PMS7003;56514;51.816;-0.026;2022-10-16T04:59:31;0.00;0.00;0.00
69222;PMS7003;56514;51.816;-0.026;2022-10-16T05:02:16;0.00;0.00;0.00
69222;PMS7003;56514;51.816;-0.026;2022-10-16T05:05:01;0.00;0.00;0.00
69222;PMS7003;56514;51.816;-0.026;2022-10-16T05:07:46;0.00;0.00;0.00
69222;PMS7003;56514;51.816;-0.026;2022-10-16T05:10:32;0.00;0.00;0.00
69222;PMS7003;56514;51.816;-0.026;2022-10-16T05:13:19;0.00;0.00;0.00
69222;PMS7003;56514;51.816;-0.026;2022-10-16T05:16:04;0.00;0.00;0.00
69222;PMS7003;56514;51.816;-0.026;2022-10-16T05:18:50;0.00;0.00;0.00
69222;PMS7003;56514;51.816;-0.026;2022-10-16T05:21:36;0.00;0.00;0.00
69222;PMS7003;56514;51.816;-0.026;2022-10-16T05:24:21;0.00;0.00;0.00
69222;PMS7003;56514;51.816;-0.026;2022-10-16T05:27:06;0.75;0.00;0.00
69222;PMS7003;56514;51.816;-0.026;2022-10-16T05:29:52;0.00;0.00;0.00
69222;PMS7003;56514;51.816;-0.026;2022-10-16T05:32:37;0.00;0.00;0.00
69222;PMS7003;56514;51.816;-0.026;2022-10-16T05:35:22;0.00;0.00;0.00
69222;PMS7003;56514;51.816;-0.026;2022-10-16T05:38:07;0.00;0.00;0.00
69222;PMS7003;56514;51.816;-0.026;2022-10-16T05:40:51;0.00;0.00;0.00
69222;PMS7003;56514;51.816;-0.026;2022-10-16T05:43:36;0.00;0.00;0.00
69222;PMS7003;56514;51.816;-0.026;2022-10-16T05:46:21;0.00;0.00;0.00
69222;PMS7003;56514;51.816;-0.026;2022-10-16T05:49:07;0.00;0.00;0.00
69222;PMS7003;56514;51.816;-0.026;2022-10-16T05:51:51;0.50;0.50;0.50
69222;PMS7003;56514;51.816;-0.026;2022-10-16T05:54:36;0.00;0.00;0.00
69222;PMS7003;56514;51.816;-0.026;2022-10-16T05:57:21;0.00;0.00;0.00
69222;PMS7003;56514;51.816;-0.026;2022-10-16T06:00:06;0.00;0.00;0.00
69222;PMS7003;56514;51.816;-0.026;2022-10-16T06:02:52;0.00;0.00;0.00
69222;PMS7003;56514;51.816;-0.026;2022-10-16T06:05:37;0.00;0.00;0.00
69222;PMS7003;56514;51.816;-0.026;2022-10-16T06:08:22;0.00;0.00;0.00
69222;PMS7003;56514;51.816;-0.026;2022-10-16T06:11:08;0.00;0.00;0.00
69222;PMS7003;56514;51.816;-0.026;2022-10-16T06:13:56;0.00;0.00;0.00
69222;PMS7003;56514;51.816;-0.026;2022-10-16T06:16:43;0.00;0.00;0.00
69222;PMS7003;56514;51.816;-0.026;2022-10-16T06:19:27;0.00;0.00;0.00
69222;PMS7003;56514;51.816;-0.026;2022-10-16T06:22:12;0.00;0.00;0.00
69222;PMS7003;56514;51.816;-0.026;2022-10-16T06:24:58;0.00;0.00;0.00
69222;PMS7003;56514;51.816;-0.026;2022-10-16T06:27:42;0.00;0.00;0.00
69222;PMS7003;56514;51.816;-0.026;2022-10-16T06:30:27;0.00;0.00;0.00
69222;PMS7003;56514;51.816;-0.026;2022-10-16T06:33:12;0.00;0.00;0.00
69222;PMS7003;56514;51.816;-0.026;2022-10-16T06:36:08;0.00;0.00;0.00
69222;PMS7003;56514;51.816;-0.026;2022-10-16T06:38:55;0.00;0.00;0.00
69222;PMS7003;56514;51.816;-0.026;2022-10-16T06:41:40;0.00;0.00;0.00
69222;PMS7003;56514;51.816;-0.026;2022-10-16T06:44:24;0.00;0.00;0.00
69222;PMS7003;56514;51.816;-0.026;2022-10-16T06:47:09;0.00;0.00;0.00
69222;PMS7003;56514;51.816;-0.026;2022-10-16T06:49:55;0.00;0.00;0.00
69222;PMS7003;56514;51.816;-0.026;2022-10-16T06:52:40;0.00;0.00;0.00
69222;PMS7003;56514;51.816;-0.026;2022-10-16T06:55:25;0.00;0.00;0.00
69222;PMS7003;56514;51.816;-0.026;2022-10-16T06:58:10;0.00;0.00;0.00
69222;PMS7003;56514;51.816;-0.026;2022-10-16T07:00:55;0.00;0.00;0.00
69222;PMS7003;56514;51.816;-0.026;2022-10-16T07:03:42;0.00;0.00;0.00
69222;PMS7003;56514;51.816;-0.026;2022-10-16T07:06:30;0.00;0.00;0.00
69222;PMS7003;56514;51.816;-0.026;2022-10-16T07:09:16;0.00;0.00;0.00
69222;PMS7003;56514;51.816;-0.026;2022-10-16T07:12:02;0.00;0.00;0.00
69222;PMS7003;56514;51.816;-0.026;2022-10-16T07:14:48;0.00;0.00;0.00
69222;PMS7003;56514;51.816;-0.026;2022-10-16T07:17:36;0.00;0.00;0.00
69222;PMS7003;56514;51.816;-0.026;2022-10-16T07:20:21;0.00;0.00;0.00
69222;PMS7003;56514;51.816;-0.026;2022-10-16T07:23:06;0.00;0.00;0.00
69222;PMS7003;56514;51.816;-0.026;2022-10-16T07:25:55;0.00;0.00;0.00
69222;PMS7003;56514;51.816;-0.026;2022-10-16T07:28:40;0.00;0.00;0.00
69222;PMS7003;56514;51.816;-0.026;2022-10-16T07:31:28;0.00;0.00;0.00
69222;PMS7003;56514;51.816;-0.026;2022-10-16T07:34:13;0.00;0.00;0.00
69222;PMS7003;56514;51.816;-0.026;2022-10-16T07:36:59;0.00;0.00;0.00
69222;PMS7003;56514;51.816;-0.026;2022-10-16T07:39:44;0.00;0.00;0.00
69222;PMS7003;56514;51.816;-0.026;2022-10-16T07:42:32;0.00;0.00;0.00
69222;PMS7003;56514;51.816;-0.026;2022-10-16T07:45:19;0.00;0.00;0.00
69222;PMS7003;56514;51.816;-0.026;2022-10-16T07:48:07;0.00;0.00;0.00
69222;PMS7003;56514;51.816;-0.026;2022-10-16T07:50:52;0.00;0.00;0.00
69222;PMS7003;56514;51.816;-0.026;2022-10-16T07:53:41;0.00;0.00;0.00
69222;PMS7003;56514;51.816;-0.026;2022-10-16T07:56:26;0.00;0.00;0.00
69222;PMS7003;56514;51.816;-0.026;2022-10-16T07:59:11;0.50;0.00;0.00
69222;PMS7003;56514;51.816;-0.026;2022-10-16T08:01:56;0.00;0.00;0.00
69222;PMS7003;56514;51.816;-0.026;2022-10-16T08:04:40;0.00;0.00;0.00
69222;PMS7003;56514;51.816;-0.026;2022-10-16T08:07:25;0.00;0.00;0.00
69222;PMS7003;56514;51.816;-0.026;2022-10-16T08:10:14;0.00;0.00;0.00
69222;PMS7003;56514;51.816;-0.026;2022-10-16T08:13:02;0.00;0.00;0.00
69222;PMS7003;56514;51.816;-0.026;2022-10-16T08:15:47;0.00;0.00;0.00
69222;PMS7003;56514;51.816;-0.026;2022-10-16T08:18:31;0.00;0.00;0.00
69222;PMS7003;56514;51.816;-0.026;2022-10-16T08:21:17;0.00;0.00;0.00
69222;PMS7003;56514;51.816;-0.026;2022-10-16T08:24:04;0.00;0.00;0.00
69222;PMS7003;56514;51.816;-0.026;2022-10-16T08:26:49;0.00;0.00;0.00
69222;PMS7003;56514;51.816;-0.026;2022-10-16T08:29:34;0.00;0.00;0.00
69222;PMS7003;56514;51.816;-0.026;2022-10-16T08:32:22;0.00;0.00;0.00
69222;PMS7003;56514;51.816;-0.026;2022-10-16T08:35:08;0.00;0.00;0.00
69222;PMS7003;56514;51.816;-0.026;2022-10-16T08:37:54;0.00;0.00;0.00
69222;PMS7003;56514;51.816;-0.026;2022-10-16T08:40:39;0.50;0.00;0.00
69222;PMS7003;56514;51.816;-0.026;2022-10-16T08:43:33;0.00;0.00;0.00
69222;PMS7003;56514;51.816;-0.026;2022-10-16T08:46:50;0.00;0.00;0.00
69222;PMS7003;56514;51.816;-0.026;2022-10-16T08:50:00;1.00;0.00;0.00
69222;PMS7003;56514;51.816;-0.026;2022-10-16T08:52:53;0.00;0.00;0.00
69222;PMS7003;56514;51.816;-0.026;2022-10-16T08:55:46;0.00;0.00;0.00
69222;PMS7003;56514;51.816;-0.026;2022-10-16T08:58:35;0.00;0.00;0.00
69222;PMS7003;56514;51.816;-0.026;2022-10-16T09:01:22;0.00;0.00;0.00
69222;PMS7003;56514;51.816;-0.026;2022-10-16T09:07:43;0.00;0.00;0.00
69222;PMS7003;56514;51.816;-0.026;2022-10-16T09:14:39;0.00;0.00;0.00
69222;PMS7003;56514;51.816;-0.026;2022-10-16T09:16:58;0.00;0.00;0.00
69222;PMS7003;56514;51.816;-0.026;2022-10-16T09:23:45;0.00;0.00;0.00
69222;PMS7003;56514;51.816;-0.026;2022-10-16T09:26:23;0.00;0.00;0.00
69222;PMS7003;56514;51.816;-0.026;2022-10-16T09:29:12;0.00;0.00;0.00
69222;PMS7003;56514;51.816;-0.026;2022-10-16T09:32:07;0.00;0.00;0.00
69222;PMS7003;56514;51.816;-0.026;2022-10-16T09:34:56;0.00;0.00;0.00
69222;PMS7003;56514;51.816;-0.026;2022-10-16T09:37:42;0.00;0.00;0.00
69222;PMS7003;56514;51.816;-0.026;2022-10-16T09:40:34;0.00;0.00;0.00
69222;PMS7003;56514;51.816;-0.026;2022-10-16T09:43:22;0.00;0.00;0.00
69222;PMS7003;56514;51.816;-0.026;2022-10-16T09:46:24;0.00;0.00;0.00
69222;PMS7003;56514;51.816;-0.026;2022-10-16T09:49:22;0.00;0.00;0.00
69222;PMS7003;56514;51.816;-0.026;2022-10-16T09:52:13;0.00;0.00;0.00
69222;PMS7003;56514;51.816;-0.026;2022-10-16T09:55:00;0.00;0.00;0.00
69222;PMS7003;56514;51.816;-0.026;2022-10-16T09:57:56;0.00;0.00;0.00
69222;PMS7003;56514;51.816;-0.026;2022-10-16T10:00:42;0.00;0.00;0.00
69222;PMS7003;56514;51.816;-0.026;2022-10-16T10:03:37;0.00;0.00;0.00
69222;PMS7003;56514;51.816;-0.026;2022-10-16T10:06:35;0.00;0.00;0.00
69222;PMS7003;56514;51.816;-0.026;2022-10-16T10:09:29;0.75;0.00;0.00
69222;PMS7003;56514;51.816;-0.026;2022-10-16T10:12:28;0.00;0.00;0.00
69222;PMS7003;56514;51.816;-0.026;2022-10-16T10:15:16;0.00;0.00;0.00
69222;PMS7003;56514;51.816;-0.026;2022-10-16T10:18:15;0.00;0.00;0.00
69222;PMS7003;56514;51.816;-0.026;2022-10-16T10:21:12;0.00;0.00;0.00
69222;PMS7003;56514;51.816;-0.026;2022-10-16T10:24:00;0.00;0.00;0.00
69222;PMS7003;56514;51.816;-0.026;2022-10-16T10:26:48;0.00;0.00;0.00
69222;PMS7003;56514;51.816;-0.026;2022-10-16T10:33:23;0.00;0.00;0.00
69222;PMS7003;56514;51.816;-0.026;2022-10-16T10:38:53;0.00;0.00;0.00
69222;PMS7003;56514;51.816;-0.026;2022-10-16T10:41:53;0.00;0.00;0.00
69222;PMS7003;56514;51.816;-0.026;2022-10-16T10:51:13;0.00;0.00;0.00
69222;PMS7003;56514;51.816;-0.026;2022-10-16T10:54:14;0.00;0.00;0.00
69222;PMS7003;56514;51.816;-0.026;2022-10-16T11:00:27;0.00;0.00;0.00
69222;PMS7003;56514;51.816;-0.026;2022-10-16T11:03:41;0.00;0.00;0.00
69222;PMS7003;56514;51.816;-0.026;2022-10-16T11:07:01;0.00;0.00;0.00
69222;PMS7003;56514;51.816;-0.026;2022-10-16T11:09:45;0.00;0.00;0.00
69222;PMS7003;56514;51.816;-0.026;2022-10-16T11:12:38;0.00;0.00;0.00
69222;PMS7003;56514;51.816;-0.026;2022-10-16T11:15:29;0.00;0.00;0.00
69222;PMS7003;56514;51.816;-0.026;2022-10-16T11:18:22;0.00;0.00;0.00
69222;PMS7003;56514;51.816;-0.026;2022-10-16T11:21:15;0.00;0.00;0.00
69222;PMS7003;56514;51.816;-0.026;2022-10-16T11:26:49;0.00;0.00;0.00
69222;PMS7003;56514;51.816;-0.026;2022-10-16T11:29:36;0.00;0.00;0.00
69222;PMS7003;56514;51.816;-0.026;2022-10-16T11:41:37;0.00;0.00;0.00
69222;PMS7003;56514;51.816;-0.026;2022-10-16T11:44:27;0.00;0.00;0.00
69222;PMS7003;56514;51.816;-0.026;2022-10-16T11:47:34;0.00;0.00;0.00
69222;PMS7003;56514;51.816;-0.026;2022-10-16T11:54:04;0.00;0.00;0.00
69222;PMS7003;56514;51.816;-0.026;2022-10-16T11:57:07;0.00;0.00;0.00
69222;PMS7003;56514;51.816;-0.026;2022-10-16T12:06:13;0.00;0.00;0.00
69222;PMS7003;56514;51.816;-0.026;2022-10-16T12:12:26;0.00;0.00;0.00
69222;PMS7003;56514;51.816;-0.026;2022-10-16T12:15:22;0.00;0.00;0.00
69222;PMS7003;56514;51.816;-0.026;2022-10-16T12:18:22;0.00;0.00;0.00
69222;PMS7003;56514;51.816;-0.026;2022-10-16T12:21:09;0.00;0.00;0.00
69222;PMS7003;56514;51.816;-0.026;2022-10-16T12:23:58;0.00;0.00;0.00
69222;PMS7003;56514;51.816;-0.026;2022-10-16T12:26:48;0.00;0.00;0.00
69222;PMS7003;56514;51.816;-0.026;2022-10-16T12:29:39;0.00;0.00;0.00
69222;PMS7003;56514;51.816;-0.026;2022-10-16T12:32:30;0.00;0.00;0.00
69222;PMS7003;56514;51.816;-0.026;2022-10-16T12:35:21;0.00;0.00;0.00
69222;PMS7003;56514;51.816;-0.026;2022-10-16T12:38:28;0.00;0.00;0.00
69222;PMS7003;56514;51.816;-0.026;2022-10-16T12:44:25;0.00;0.00;0.00
69222;PMS7003;56514;51.816;-0.026;2022-10-16T12:50:37;0.00;0.00;0.00
69222;PMS7003;56514;51.816;-0.026;2022-10-16T12:53:24;0.00;0.00;0.00
69222;PMS7003;56514;51.816;-0.026;2022-10-16T13:05:38;0.00;0.00;0.00
69222;PMS7003;56514;51.816;-0.026;2022-10-16T13:11:48;0.00;0.00;0.00
69222;PMS7003;56514;51.816;-0.026;2022-10-16T13:20:35;0.00;0.00;0.00
69222;PMS7003;56514;51.816;-0.026;2022-10-16T13:23:30;0.00;0.00;0.00
69222;PMS7003;56514;51.816;-0.026;2022-10-16T13:29:31;0.00;0.00;0.00
69222;PMS7003;56514;51.816;-0.026;2022-10-16T13:32:17;0.00;0.00;0.00
69222;PMS7003;56514;51.816;-0.026;2022-10-16T13:35:17;0.00;0.00;0.00
69222;PMS7003;56514;51.816;-0.026;2022-10-16T13:40:59;0.00;0.00;0.00
69222;PMS7003;56514;51.816;-0.026;2022-10-16T13:43:58;0.00;0.00;0.00
69222;PMS7003;56514;51.816;-0.026;2022-10-16T13:46:43;0.00;0.00;0.00
69222;PMS7003;56514;51.816;-0.026;2022-10-16T13:49:28;0.00;0.00;0.00
69222;PMS7003;56514;51.816;-0.026;2022-10-16T13:52:17;0.00;0.00;0.00
69222;PMS7003;56514;51.816;-0.026;2022-10-16T13:55:15;0.00;0.00;0.00
69222;PMS7003;56514;51.816;-0.026;2022-10-16T13:58:12;0.00;0.00;0.00
69222;PMS7003;56514;51.816;-0.026;2022-10-16T14:00:59;0.00;0.00;0.00
69222;PMS7003;56514;51.816;-0.026;2022-10-16T14:04:06;0.00;0.00;0.00
69222;PMS7003;56514;51.816;-0.026;2022-10-16T14:06:53;0.00;0.00;0.00
69222;PMS7003;56514;51.816;-0.026;2022-10-16T14:09:38;0.00;0.00;0.00
69222;PMS7003;56514;51.816;-0.026;2022-10-16T14:12:23;0.00;0.00;0.00
69222;PMS7003;56514;51.816;-0.026;2022-10-16T14:15:17;0.00;0.00;0.00
69222;PMS7003;56514;51.816;-0.026;2022-10-16T14:18:03;0.00;0.00;0.00
69222;PMS7003;56514;51.816;-0.026;2022-10-16T14:20:49;0.00;0.00;0.00
69222;PMS7003;56514;51.816;-0.026;2022-10-16T14:23:38;0.00;0.00;0.00
69222;PMS7003;56514;51.816;-0.026;2022-10-16T14:26:27;0.00;0.00;0.00
69222;PMS7003;56514;51.816;-0.026;2022-10-16T14:29:14;0.00;0.00;0.00
69222;PMS7003;56514;51.816;-0.026;2022-10-16T14:32:05;0.50;0.50;0.00
69222;PMS7003;56514;51.816;-0.026;2022-10-16T14:34:53;0.00;0.00;0.00
69222;PMS7003;56514;51.816;-0.026;2022-10-16T14:37:38;0.00;0.00;0.00
69222;PMS7003;56514;51.816;-0.026;2022-10-16T14:40:24;0.00;0.00;0.00
69222;PMS7003;56514;51.816;-0.026;2022-10-16T14:43:14;0.00;0.00;0.00
69222;PMS7003;56514;51.816;-0.026;2022-10-16T14:46:14;0.00;0.00;0.00
69222;PMS7003;56514;51.816;-0.026;2022-10-16T14:51:59;0.00;0.00;0.00
69222;PMS7003;56514;51.816;-0.026;2022-10-16T14:54:47;0.00;0.00;0.00
69222;PMS7003;56514;51.816;-0.026;2022-10-16T14:57:33;0.00;0.00;0.00
69222;PMS7003;56514;51.816;-0.026;2022-10-16T15:00:22;0.00;0.00;0.00
69222;PMS7003;56514;51.816;-0.026;2022-10-16T15:03:08;0.00;0.00;0.00
69222;PMS7003;56514;51.816;-0.026;2022-10-16T15:05:56;0.00;0.00;0.00
69222;PMS7003;56514;51.816;-0.026;2022-10-16T15:08:41;0.00;0.00;0.00
69222;PMS7003;56514;51.816;-0.026;2022-10-16T15:11:27;0.00;0.00;0.00
69222;PMS7003;56514;51.816;-0.026;2022-10-16T15:14:12;0.00;0.00;0.00
69222;PMS7003;56514;51.816;-0.026;2022-10-16T15:16:58;0.00;0.00;0.00
69222;PMS7003;56514;51.816;-0.026;2022-10-16T15:19:43;0.50;0.50;0.00
69222;PMS7003;56514;51.816;-0.026;2022-10-16T15:22:28;0.00;0.00;0.00
69222;PMS7003;56514;51.816;-0.026;2022-10-16T15:25:24;0.00;0.00;0.00
69222;PMS7003;56514;51.816;-0.026;2022-10-16T15:28:22;0.00;0.00;0.00
69222;PMS7003;56514;51.816;-0.026;2022-10-16T15:31:08;0.00;0.00;0.00
69222;PMS7003;56514;51.816;-0.026;2022-10-16T15:33:53;0.00;0.00;0.00
69222;PMS7003;56514;51.816;-0.026;2022-10-16T15:36:42;0.00;0.00;0.00
69222;PMS7003;56514;51.816;-0.026;2022-10-16T15:39:27;0.00;0.00;0.00
69222;PMS7003;56514;51.816;-0.026;2022-10-16T15:42:12;0.00;0.00;0.00
69222;PMS7003;56514;51.816;-0.026;2022-10-16T15:44:58;0.00;0.00;0.00
69222;PMS7003;56514;51.816;-0.026;2022-10-16T15:47:43;1.00;0.00;0.00
69222;PMS7003;56514;51.816;-0.026;2022-10-16T15:50:28;1.75;1.00;0.00
69222;PMS7003;56514;51.816;-0.026;2022-10-16T15:53:15;0.00;0.00;0.00
69222;PMS7003;56514;51.816;-0.026;2022-10-16T15:56:04;0.00;0.00;0.00
69222;PMS7003;56514;51.816;-0.026;2022-10-16T15:58:54;0.00;0.00;0.00
69222;PMS7003;56514;51.816;-0.026;2022-10-16T16:01:45;1.00;1.00;0.75
69222;PMS7003;56514;51.816;-0.026;2022-10-16T16:04:30;0.00;0.00;0.00
69222;PMS7003;56514;51.816;-0.026;2022-10-16T16:07:17;0.00;0.00;0.00
69222;PMS7003;56514;51.816;-0.026;2022-10-16T16:10:03;0.00;0.00;0.00
69222;PMS7003;56514;51.816;-0.026;2022-10-16T16:12:49;0.00;0.00;0.00
69222;PMS7003;56514;51.816;-0.026;2022-10-16T16:15:40;1.25;1.25;0.00
69222;PMS7003;56514;51.816;-0.026;2022-10-16T16:18:25;0.50;0.50;0.25
69222;PMS7003;56514;51.816;-0.026;2022-10-16T16:21:11;1.00;1.00;0.00
69222;PMS7003;56514;51.816;-0.026;2022-10-16T16:23:57;0.25;0.25;0.00
69222;PMS7003;56514;51.816;-0.026;2022-10-16T16:26:42;0.00;0.00;0.00
69222;PMS7003;56514;51.816;-0.026;2022-10-16T16:29:28;0.00;0.00;0.00
69222;PMS7003;56514;51.816;-0.026;2022-10-16T16:32:16;0.00;0.00;0.00
69222;PMS7003;56514;51.816;-0.026;2022-10-16T16:35:01;0.00;0.00;0.00
69222;PMS7003;56514;51.816;-0.026;2022-10-16T16:37:47;1.00;1.00;0.25
69222;PMS7003;56514;51.816;-0.026;2022-10-16T16:40:32;1.00;0.00;0.00
69222;PMS7003;56514;51.816;-0.026;2022-10-16T16:43:27;0.00;0.00;0.00
69222;PMS7003;56514;51.816;-0.026;2022-10-16T16:46:12;0.00;0.00;0.00
69222;PMS7003;56514;51.816;-0.026;2022-10-16T16:48:59;0.00;0.00;0.00
69222;PMS7003;56514;51.816;-0.026;2022-10-16T16:51:44;0.00;0.00;0.00
69222;PMS7003;56514;51.816;-0.026;2022-10-16T16:54:29;0.00;0.00;0.00
69222;PMS7003;56514;51.816;-0.026;2022-10-16T16:57:15;0.00;0.00;0.00
69222;PMS7003;56514;51.816;-0.026;2022-10-16T16:59:59;0.25;0.25;0.00
69222;PMS7003;56514;51.816;-0.026;2022-10-16T17:02:47;0.00;0.00;0.00
69222;PMS7003;56514;51.816;-0.026;2022-10-16T17:05:33;0.25;0.00;0.00
69222;PMS7003;56514;51.816;-0.026;2022-10-16T17:08:21;0.00;0.00;0.00
69222;PMS7003;56514;51.816;-0.026;2022-10-16T17:11:11;0.00;0.00;0.00
69222;PMS7003;56514;51.816;-0.026;2022-10-16T17:13:58;0.00;0.00;0.00
69222;PMS7003;56514;51.816;-0.026;2022-10-16T17:16:44;0.00;0.00;0.00
69222;PMS7003;56514;51.816;-0.026;2022-10-16T17:19:29;1.75;1.75;0.25
69222;PMS7003;56514;51.816;-0.026;2022-10-16T17:22:15;0.75;0.75;0.00
69222;PMS7003;56514;51.816;-0.026;2022-10-16T17:24:59;0.25;0.25;0.00
69222;PMS7003;56514;51.816;-0.026;2022-10-16T17:27:46;0.25;0.25;0.00
69222;PMS7003;56514;51.816;-0.026;2022-10-16T17:30:32;0.25;0.25;0.00
69222;PMS7003;56514;51.816;-0.026;2022-10-16T17:33:21;0.00;0.00;0.00
69222;PMS7003;56514;51.816;-0.026;2022-10-16T17:36:06;0.25;0.25;0.00
69222;PMS7003;56514;51.816;-0.026;2022-10-16T17:38:52;0.00;0.00;0.00
69222;PMS7003;56514;51.816;-0.026;2022-10-16T17:41:37;0.75;0.75;0.00
69222;PMS7003;56514;51.816;-0.026;2022-10-16T17:44:22;0.75;0.75;0.00
69222;PMS7003;56514;51.816;-0.026;2022-10-16T17:47:07;1.00;1.00;1.00
69222;PMS7003;56514;51.816;-0.026;2022-10-16T17:49:52;2.00;2.00;1.50
69222;PMS7003;56514;51.816;-0.026;2022-10-16T17:52:36;2.75;2.75;1.75
69222;PMS7003;56514;51.816;-0.026;2022-10-16T17:55:21;2.00;2.00;2.00
69222;PMS7003;56514;51.816;-0.026;2022-10-16T17:58:06;1.00;1.00;1.00